Terminal Aerodrome Forecast
Issued by NWS

Home | Current Version | Previous Version | Text Only | Print | Product List | Glossary On
Versions: 1 2 3 4 5 6 7 8 9 10 11 12 13 14 15 16
000
FTUS44 KLZK 210500 RRA
TAFADF
TAF
KADF 210541Z 2106/2206 16004KT 6SM BR SKC
     FM210900 18003KT 4SM BR SCT015
     FM211500 21008KT P6SM SCT040
     FM220100 17003KT P6SM FEW250=

USA.gov is the U.S. government's official web portal to all federal, state and local government web resources and services.